createdAt,value
2022-12-20T00:01:21.122Z,50.60
2022-12-20T00:03:51.168Z,51.17
2022-12-20T00:06:18.017Z,49.73
2022-12-20T00:08:45.448Z,53.95
2022-12-20T00:11:12.986Z,51.10
2022-12-20T00:13:40.411Z,49.17
2022-12-20T00:16:12.631Z,48.00
2022-12-20T00:18:40.784Z,50.27
2022-12-20T00:21:10.388Z,47.63
2022-12-20T00:23:37.643Z,48.85
2022-12-20T00:26:11.123Z,46.97
2022-12-20T00:28:39.051Z,49.13
2022-12-20T00:31:06.130Z,53.47
2022-12-20T00:33:33.897Z,50.47
2022-12-20T00:36:00.509Z,49.80
2022-12-20T00:38:27.668Z,50.13
2022-12-20T00:41:06.605Z,48.60
2022-12-20T00:43:33.892Z,48.45
2022-12-20T00:46:01.473Z,49.33
2022-12-20T00:48:29.851Z,52.73
2022-12-20T00:51:05.034Z,53.43
2022-12-20T00:53:32.672Z,46.67
2022-12-20T00:55:59.784Z,51.80
2022-12-20T00:58:27.088Z,48.20
2022-12-20T01:00:56.523Z,45.37
2022-12-20T01:03:25.005Z,50.43
2022-12-20T01:05:53.210Z,49.10
2022-12-20T01:08:21.195Z,50.37
2022-12-20T01:10:48.131Z,46.00
2022-12-20T01:13:14.638Z,45.90
2022-12-20T01:15:41.155Z,44.72
2022-12-20T01:18:07.638Z,47.80
2022-12-20T01:20:34.208Z,52.47
2022-12-20T01:23:00.747Z,50.28
2022-12-20T01:25:27.308Z,51.85
2022-12-20T01:27:53.889Z,47.80
2022-12-20T01:30:20.407Z,46.15
2022-12-20T01:32:46.882Z,49.65
2022-12-20T01:35:13.403Z,49.03
2022-12-20T01:37:39.937Z,47.08
2022-12-20T01:40:07.311Z,45.40
2022-12-20T01:42:34.084Z,49.53
2022-12-20T01:45:00.656Z,50.03
2022-12-20T01:47:32.710Z,48.35
2022-12-20T01:50:02.319Z,47.33
2022-12-20T01:52:34.502Z,43.33
2022-12-20T01:55:20.417Z,52.10
2022-12-20T01:57:49.160Z,50.58
2022-12-20T02:00:17.389Z,49.55
2022-12-20T02:02:47.819Z,45.65
2022-12-20T02:05:15.461Z,49.65
2022-12-20T02:07:44.332Z,48.90
2022-12-20T02:10:12.688Z,49.67
2022-12-20T02:12:42.779Z,52.92
2022-12-20T02:15:27.688Z,46.90
2022-12-20T02:18:20.470Z,48.70
2022-12-20T02:21:05.672Z,53.70
2022-12-20T02:24:13.430Z,49.37
2022-12-20T02:27:17.623Z,47.50
2022-12-20T02:30:08.963Z,50.30
2022-12-20T02:33:01.789Z,48.33
2022-12-20T02:35:32.225Z,48.35
2022-12-20T02:41:51.762Z,47.87
2022-12-20T02:44:39.518Z,50.67
2022-12-20T02:47:10.939Z,44.53
2022-12-20T02:49:41.317Z,49.70
2022-12-20T02:52:10.163Z,49.27
2022-12-20T02:54:37.283Z,45.85
2022-12-20T02:57:29.645Z,47.42
2022-12-20T03:00:07.106Z,50.17
2022-12-20T03:02:54.534Z,46.83
2022-12-20T03:05:23.875Z,53.30
2022-12-20T03:07:50.848Z,49.97
2022-12-20T03:12:44.751Z,51.73
2022-12-20T03:15:11.403Z,46.55
2022-12-20T03:17:37.949Z,46.67
2022-12-20T03:20:06.359Z,51.20
2022-12-20T03:22:33.959Z,47.93
2022-12-20T03:25:01.099Z,48.30
2022-12-20T03:27:28.827Z,48.55
2022-12-20T03:29:55.904Z,50.58
2022-12-20T03:34:49.191Z,46.30
2022-12-20T03:37:16.423Z,46.88
2022-12-20T03:39:43.009Z,45.15
2022-12-20T03:42:09.891Z,48.17
2022-12-20T03:44:36.750Z,43.75
2022-12-20T03:47:03.416Z,49.88
2022-12-20T03:49:29.926Z,46.55
2022-12-20T03:51:56.468Z,46.67
2022-12-20T03:54:23.124Z,48.30
2022-12-20T03:56:49.639Z,47.75
2022-12-20T03:59:16.545Z,46.22
2022-12-20T04:01:43.145Z,46.03
2022-12-20T04:04:12.491Z,47.53
2022-12-20T04:06:39.254Z,47.63
2022-12-20T04:09:05.992Z,46.97
2022-12-20T04:11:32.610Z,44.80
2022-12-20T04:13:59.121Z,46.72
2022-12-20T04:16:28.395Z,45.55
2022-12-20T04:18:55.101Z,45.40
2022-12-20T04:21:26.469Z,50.53
2022-12-20T04:23:53.144Z,48.58
2022-12-20T04:26:19.753Z,45.92
2022-12-20T04:28:46.338Z,44.20
2022-12-20T04:31:15.090Z,49.83
2022-12-20T04:33:46.112Z,47.43
2022-12-20T04:36:13.342Z,49.43
2022-12-20T04:38:39.915Z,45.75
2022-12-20T04:41:07.019Z,46.65
2022-12-20T04:43:33.749Z,47.83
2022-12-20T04:46:00.390Z,43.72
2022-12-20T04:51:16.093Z,47.95
2022-12-20T04:53:48.527Z,45.70
2022-12-20T04:56:29.183Z,48.72
2022-12-20T04:58:57.503Z,47.03
2022-12-20T05:01:24.413Z,49.80
2022-12-20T05:09:07.890Z,45.70
2022-12-20T05:11:34.503Z,47.55
2022-12-20T05:14:01.016Z,43.80
2022-12-20T05:16:27.616Z,45.95
2022-12-20T05:18:54.370Z,45.13
2022-12-20T05:21:39.320Z,46.08
2022-12-20T05:24:25.314Z,44.90
2022-12-20T05:26:52.044Z,46.22
2022-12-20T05:29:18.729Z,49.25
2022-12-20T05:31:45.384Z,51.08
2022-12-20T05:34:12.071Z,45.70
2022-12-20T05:36:38.639Z,45.55
2022-12-20T05:39:06.138Z,45.97
2022-12-20T05:41:32.763Z,47.73
2022-12-20T05:43:59.369Z,43.42
2022-12-20T05:46:26.151Z,45.97
2022-12-20T05:48:52.973Z,44.65
2022-12-20T05:51:19.514Z,44.45
2022-12-20T05:53:46.163Z,47.67
2022-12-20T05:56:12.703Z,43.95
2022-12-20T05:58:40.315Z,47.78
2022-12-20T06:01:08.376Z,42.67
2022-12-20T06:03:35.083Z,46.65
2022-12-20T06:06:01.873Z,41.65
2022-12-20T06:08:28.516Z,43.03
2022-12-20T06:10:55.249Z,46.22
2022-12-20T06:13:21.814Z,43.65
2022-12-20T06:15:48.560Z,45.05
2022-12-20T06:18:15.153Z,42.75
2022-12-20T06:20:41.783Z,42.78
2022-12-20T06:23:09.746Z,41.35
2022-12-20T06:25:39.660Z,43.70
2022-12-20T06:28:07.710Z,41.27
2022-12-20T06:30:35.015Z,45.83
2022-12-20T06:33:02.399Z,46.72
2022-12-20T06:35:29.901Z,39.70
2022-12-20T06:37:56.851Z,44.58
2022-12-20T06:40:23.772Z,40.47
2022-12-20T06:45:31.747Z,39.17
2022-12-20T06:48:01.243Z,41.67
2022-12-20T06:50:28.024Z,39.25
2022-12-20T06:52:54.699Z,39.65
2022-12-20T06:55:21.366Z,37.05
2022-12-20T06:57:47.929Z,39.95
2022-12-20T07:00:15.139Z,40.55
2022-12-20T07:02:41.840Z,38.58
2022-12-20T07:05:08.623Z,36.75
2022-12-20T07:07:40.197Z,39.70
2022-12-20T07:10:11.096Z,41.47
2022-12-20T07:12:41.037Z,41.20
2022-12-20T07:15:10.733Z,43.70
2022-12-20T07:17:37.274Z,39.58
2022-12-20T07:20:09.115Z,43.83
2022-12-20T07:22:39.430Z,42.15
2022-12-20T07:25:06.178Z,43.38
2022-12-20T07:27:32.696Z,40.67
2022-12-20T07:29:59.244Z,41.42
2022-12-20T07:32:25.876Z,42.33
2022-12-20T07:34:52.652Z,44.00
2022-12-20T07:37:19.562Z,44.50
2022-12-20T07:39:46.057Z,41.65
2022-12-20T07:42:12.638Z,45.08
2022-12-20T07:44:39.189Z,45.13
2022-12-20T07:47:06.041Z,46.40
2022-12-20T07:49:32.623Z,44.25
2022-12-20T07:52:02.616Z,52.38
2022-12-20T07:54:33.531Z,47.87
2022-12-20T07:57:07.135Z,47.30
2022-12-20T07:59:39.832Z,44.88
2022-12-20T08:02:13.556Z,48.28
2022-12-20T08:04:40.968Z,45.40
2022-12-20T08:07:09.523Z,45.90
2022-12-20T08:09:39.848Z,47.77
2022-12-20T08:12:10.545Z,44.00
2022-12-20T08:14:38.009Z,50.92
2022-12-20T08:17:04.680Z,44.88
2022-12-20T08:19:32.683Z,46.42
2022-12-20T08:21:59.696Z,48.30
2022-12-20T08:24:26.302Z,56.00
2022-12-20T08:26:52.943Z,48.97
2022-12-20T08:29:19.455Z,49.78
2022-12-20T08:31:49.987Z,47.28
2022-12-20T08:34:18.259Z,52.45
2022-12-20T08:36:45.074Z,47.57
2022-12-20T08:39:11.767Z,52.22
2022-12-20T08:41:38.569Z,50.17
2022-12-20T08:44:06.201Z,48.80
2022-12-20T08:46:33.120Z,48.47
2022-12-20T08:51:26.284Z,51.25
2022-12-20T08:53:53.073Z,48.08
2022-12-20T08:56:20.229Z,54.30
2022-12-20T08:58:47.410Z,49.23
2022-12-20T09:01:16.608Z,51.60
2022-12-20T09:03:44.017Z,48.30
2022-12-20T09:06:13.813Z,48.58
2022-12-20T09:08:40.702Z,48.72
2022-12-20T09:11:13.572Z,45.55
2022-12-20T09:13:44.245Z,48.42
2022-12-20T09:16:13.118Z,45.00
2022-12-20T09:18:39.821Z,46.20
2022-12-20T09:21:07.599Z,45.35
2022-12-20T09:23:35.294Z,44.35
2022-12-20T09:26:04.108Z,48.27
2022-12-20T09:28:31.607Z,45.22
2022-12-20T09:31:00.471Z,48.35
2022-12-20T09:33:28.780Z,45.17
2022-12-20T09:35:55.503Z,44.42
2022-12-20T09:38:22.119Z,47.65
2022-12-20T09:40:53.105Z,48.75
2022-12-20T09:43:21.529Z,49.25
2022-12-20T09:45:52.825Z,46.38
2022-12-20T09:48:24.198Z,46.63
2022-12-20T09:51:29.184Z,49.17
2022-12-20T09:53:55.621Z,42.05
2022-12-20T09:56:35.127Z,45.95
2022-12-20T09:59:06.077Z,44.83
2022-12-20T10:01:39.540Z,46.50
2022-12-20T10:04:13.640Z,46.22
2022-12-20T10:07:10.746Z,50.33
2022-12-20T10:09:37.201Z,45.80
2022-12-20T10:12:21.217Z,51.50
2022-12-20T10:15:18.208Z,49.72
2022-12-20T10:17:53.886Z,48.90
2022-12-20T10:20:23.263Z,49.75
2022-12-20T10:23:07.481Z,50.35
2022-12-20T10:25:35.129Z,44.63
2022-12-20T10:28:12.989Z,48.27
2022-12-20T10:30:39.565Z,47.40
2022-12-20T10:33:06.048Z,50.72
2022-12-20T10:35:40.544Z,51.08
2022-12-20T10:38:14.421Z,47.95
2022-12-20T10:41:20.693Z,49.67
2022-12-20T10:43:49.741Z,52.80
2022-12-20T10:46:19.607Z,49.85
2022-12-20T10:48:48.261Z,47.95
2022-12-20T10:51:21.597Z,46.87
2022-12-20T10:53:55.959Z,45.78
2022-12-20T10:56:31.563Z,50.05
2022-12-20T10:59:02.780Z,48.75
2022-12-20T11:01:33.850Z,52.90
2022-12-20T11:04:05.487Z,49.20
2022-12-20T11:09:36.731Z,54.50
2022-12-20T11:12:15.678Z,52.97
2022-12-20T11:14:46.313Z,52.15
2022-12-20T11:17:51.565Z,55.47
2022-12-20T11:20:27.010Z,54.40
2022-12-20T11:23:18.298Z,49.38
2022-12-20T11:25:50.618Z,51.10
2022-12-20T11:28:42.103Z,51.88
2022-12-20T11:31:50.436Z,52.83
2022-12-20T11:34:36.932Z,50.90
2022-12-20T11:37:24.130Z,51.42
2022-12-20T11:40:06.432Z,52.40
2022-12-20T11:42:55.897Z,51.47
2022-12-20T11:45:37.384Z,51.00
2022-12-20T11:48:42.621Z,49.00
2022-12-20T11:51:13.556Z,52.95
2022-12-20T11:53:54.732Z,54.17
2022-12-20T11:56:28.054Z,52.38
2022-12-20T11:59:04.286Z,50.72
2022-12-20T12:01:40.908Z,55.58
2022-12-20T12:06:48.605Z,51.05
2022-12-20T12:09:25.630Z,54.10
2022-12-20T12:12:09.670Z,48.83
2022-12-20T12:14:51.441Z,52.25
2022-12-20T12:17:47.177Z,49.60
2022-12-20T12:20:32.204Z,55.25
2022-12-20T12:23:12.598Z,55.23
2022-12-20T12:25:39.096Z,55.30
2022-12-20T12:28:05.787Z,51.03
2022-12-20T12:30:41.208Z,53.13
2022-12-20T12:33:23.990Z,51.72
2022-12-20T12:36:32.705Z,52.72
2022-12-20T12:39:17.670Z,51.22
2022-12-20T12:42:08.767Z,53.85
2022-12-20T12:44:41.260Z,51.38
2022-12-20T12:47:23.692Z,54.23
2022-12-20T12:49:53.220Z,52.97
2022-12-20T12:52:42.263Z,54.17
2022-12-20T12:55:45.777Z,52.33
2022-12-20T12:58:24.398Z,52.65
2022-12-20T13:00:56.595Z,56.10
2022-12-20T13:04:01.812Z,53.97
2022-12-20T13:06:28.409Z,58.45
2022-12-20T13:09:00.801Z,53.85
2022-12-20T13:11:36.663Z,54.80
2022-12-20T13:14:31.961Z,55.40
2022-12-20T13:17:13.760Z,55.47
2022-12-20T13:19:51.806Z,56.47
2022-12-20T13:22:25.513Z,51.17
2022-12-20T13:25:04.414Z,55.75
2022-12-20T13:27:39.308Z,56.25
2022-12-20T13:30:14.785Z,49.53
2022-12-20T13:32:47.075Z,58.90
2022-12-20T13:35:25.987Z,53.90
2022-12-20T13:38:07.479Z,57.77
2022-12-20T13:40:50.272Z,55.50
2022-12-20T13:43:19.667Z,55.00
2022-12-20T13:45:49.605Z,59.37
2022-12-20T13:48:19.775Z,56.43
2022-12-20T13:50:52.381Z,60.30
2022-12-20T13:53:25.319Z,55.30
2022-12-20T13:55:51.835Z,55.30
2022-12-20T13:58:23.941Z,59.47
2022-12-20T14:00:52.849Z,52.90
2022-12-20T14:03:29.240Z,55.10
2022-12-20T14:05:59.545Z,59.78
2022-12-20T14:08:31.386Z,55.85
2022-12-20T14:11:16.081Z,58.13
2022-12-20T14:13:42.763Z,59.28
2022-12-20T14:16:17.934Z,57.38
2022-12-20T14:19:00.283Z,54.45
2022-12-20T14:21:27.894Z,53.00
2022-12-20T14:23:57.528Z,57.85
2022-12-20T14:26:48.094Z,59.03
2022-12-20T14:29:19.668Z,55.97
2022-12-20T14:31:48.544Z,56.72
2022-12-20T14:34:29.446Z,57.20
2022-12-20T14:37:25.342Z,55.03
2022-12-20T14:39:59.006Z,57.58
2022-12-20T14:42:29.784Z,57.10
2022-12-20T14:45:06.875Z,61.77
2022-12-20T14:47:33.601Z,59.53
2022-12-20T14:50:02.576Z,57.55
2022-12-20T14:52:32.173Z,57.60
2022-12-20T14:55:10.020Z,52.65
2022-12-20T14:57:37.024Z,50.55
2022-12-20T15:00:12.142Z,47.00
2022-12-20T15:02:56.978Z,59.45
2022-12-20T15:05:36.051Z,62.67
2022-12-20T15:08:28.515Z,56.40
2022-12-20T15:11:10.462Z,60.47
2022-12-20T15:13:40.095Z,59.67
2022-12-20T15:16:20.017Z,55.03
2022-12-20T15:18:58.441Z,59.80
2022-12-20T15:21:37.368Z,61.08
2022-12-20T15:24:09.671Z,56.17
2022-12-20T15:26:37.423Z,59.00
2022-12-20T15:29:04.700Z,55.88
2022-12-20T15:31:34.960Z,60.65
2022-12-20T15:34:10.369Z,57.20
2022-12-20T15:36:38.406Z,57.10
2022-12-20T15:39:13.507Z,57.30
2022-12-20T15:41:43.706Z,58.33
2022-12-20T15:44:17.374Z,55.78
2022-12-20T15:46:44.594Z,60.30
2022-12-20T15:49:19.667Z,59.93
2022-12-20T15:51:48.113Z,62.17
2022-12-20T15:54:32.733Z,58.15
2022-12-20T15:57:03.176Z,59.30
2022-12-20T16:02:22.520Z,56.17
2022-12-20T16:04:49.208Z,53.03
2022-12-20T16:07:16.815Z,59.08
2022-12-20T16:09:43.947Z,56.90
2022-12-20T16:12:18.467Z,61.15
2022-12-20T16:14:45.050Z,57.58
2022-12-20T16:17:15.498Z,59.88
2022-12-20T16:19:42.892Z,55.38
2022-12-20T16:22:16.691Z,59.67
2022-12-20T16:24:43.888Z,64.32
2022-12-20T16:27:10.516Z,68.18
2022-12-20T16:29:37.050Z,61.63
2022-12-20T16:32:08.064Z,59.40
2022-12-20T16:34:34.666Z,55.47
2022-12-20T16:37:01.137Z,60.35
2022-12-20T16:39:27.684Z,57.38
2022-12-20T16:41:54.640Z,60.35
2022-12-20T16:46:47.653Z,58.00
2022-12-20T16:49:20.103Z,59.28
2022-12-20T16:51:48.672Z,55.33
2022-12-20T16:54:19.694Z,58.33
2022-12-20T16:56:52.089Z,56.53
2022-12-20T16:59:21.329Z,59.67
2022-12-20T17:01:51.005Z,56.33
2022-12-20T17:04:19.200Z,60.28
2022-12-20T17:06:47.626Z,56.53
2022-12-20T17:09:16.243Z,58.80
2022-12-20T17:11:43.454Z,50.28
2022-12-20T17:14:13.055Z,58.30
2022-12-20T17:16:40.689Z,54.95
2022-12-20T17:19:07.523Z,61.45
2022-12-20T17:24:30.392Z,60.85
2022-12-20T17:26:57.080Z,58.28
2022-12-20T17:29:23.627Z,56.65
2022-12-20T17:31:50.259Z,57.42
2022-12-20T17:34:21.916Z,58.55
2022-12-20T17:36:50.697Z,58.27
2022-12-20T17:39:17.667Z,56.40
2022-12-20T17:44:21.271Z,54.92
2022-12-20T17:46:48.347Z,58.88
2022-12-20T17:56:45.171Z,56.67
2022-12-20T17:59:13.267Z,59.10
2022-12-20T18:01:41.019Z,55.10
2022-12-20T18:04:10.609Z,55.17
2022-12-20T18:06:39.074Z,58.17
2022-12-20T18:09:10.341Z,54.15
2022-12-20T18:11:36.821Z,53.70
2022-12-20T18:14:03.636Z,45.42
2022-12-20T18:16:32.236Z,55.50
2022-12-20T18:18:58.808Z,55.78
2022-12-20T18:21:26.592Z,55.42
2022-12-20T18:23:54.576Z,59.37
2022-12-20T18:26:30.628Z,54.40
2022-12-20T18:28:59.726Z,55.83
2022-12-20T18:31:28.143Z,68.30
2022-12-20T18:33:58.352Z,62.13
2022-12-20T18:36:30.435Z,55.80
2022-12-20T18:38:58.908Z,57.10
2022-12-20T18:41:28.193Z,54.63
2022-12-20T18:43:58.597Z,55.67
2022-12-20T18:46:25.521Z,52.42
2022-12-20T18:51:22.411Z,56.20
2022-12-20T18:53:50.512Z,58.13
2022-12-20T18:56:24.915Z,55.08
2022-12-20T18:58:52.158Z,56.75
2022-12-20T19:01:22.281Z,55.60
2022-12-20T19:03:50.698Z,55.72
2022-12-20T19:06:18.536Z,57.17
2022-12-20T19:08:45.344Z,53.65
2022-12-20T19:11:14.903Z,52.90
2022-12-20T19:13:41.899Z,56.50
2022-12-20T19:18:37.676Z,50.08
2022-12-20T19:21:09.420Z,54.40
2022-12-20T19:23:37.481Z,52.83
2022-12-20T19:26:06.891Z,49.90
2022-12-20T19:28:34.294Z,54.28
2022-12-20T19:31:19.184Z,54.03
2022-12-20T19:33:48.187Z,58.00
2022-12-20T19:36:25.033Z,49.40
2022-12-20T19:38:55.761Z,50.15
2022-12-20T19:41:23.857Z,52.47
2022-12-20T19:43:51.730Z,48.65
2022-12-20T19:46:28.137Z,51.45
2022-12-20T19:48:56.433Z,50.03
2022-12-20T19:51:23.477Z,51.20
2022-12-20T19:56:20.919Z,51.75
2022-12-20T19:58:47.944Z,49.10
2022-12-20T20:03:41.794Z,52.00
2022-12-20T20:06:08.926Z,54.80
2022-12-20T20:08:35.723Z,49.85
2022-12-20T20:11:09.500Z,47.33
2022-12-20T20:13:37.152Z,55.10
2022-12-20T20:18:36.617Z,48.27
2022-12-20T20:21:12.347Z,54.77
2022-12-20T20:23:39.363Z,48.70
2022-12-20T20:28:40.288Z,53.10
2022-12-20T20:31:11.997Z,54.65
2022-12-20T20:33:38.735Z,47.95
2022-12-20T20:36:06.001Z,52.65
2022-12-20T20:38:34.193Z,49.65
2022-12-20T20:41:00.780Z,51.67
2022-12-20T20:43:28.322Z,53.50
2022-12-20T20:45:54.900Z,52.15
2022-12-20T20:48:21.838Z,53.60
2022-12-20T20:50:48.329Z,50.20
2022-12-20T20:53:14.804Z,53.78
2022-12-20T20:55:41.654Z,49.03
2022-12-20T20:58:08.182Z,51.00
2022-12-20T21:00:35.033Z,41.83
2022-12-20T21:03:01.759Z,42.72
2022-12-20T21:08:18.200Z,52.35
2022-12-20T21:10:44.819Z,49.72
2022-12-20T21:13:12.175Z,51.85
2022-12-20T21:15:40.830Z,57.92
2022-12-20T21:18:07.328Z,51.85
2022-12-20T21:20:34.059Z,52.08
2022-12-20T21:23:01.507Z,50.38
2022-12-20T21:25:28.379Z,54.90
2022-12-20T21:27:56.721Z,54.83
2022-12-20T21:30:23.810Z,50.27
2022-12-20T21:32:50.818Z,54.78
2022-12-20T21:37:43.871Z,51.85
2022-12-20T21:40:10.872Z,54.20
2022-12-20T21:45:04.820Z,49.78
2022-12-20T21:47:31.445Z,49.92
2022-12-20T21:49:57.899Z,52.55
2022-12-20T21:52:24.460Z,48.65
2022-12-20T21:54:51.008Z,50.85
2022-12-20T21:57:17.480Z,36.67
2022-12-20T21:59:43.965Z,48.80
2022-12-20T22:04:39.286Z,53.10
2022-12-20T22:07:05.922Z,60.95
2022-12-20T22:09:32.434Z,49.92
2022-12-20T22:11:58.920Z,55.72
2022-12-20T22:14:26.007Z,53.05
2022-12-20T22:19:21.307Z,49.40
2022-12-20T22:21:53.767Z,52.90
2022-12-20T22:24:24.122Z,53.50
2022-12-20T22:26:50.722Z,52.10
2022-12-20T22:29:17.226Z,50.25
2022-12-20T22:31:43.999Z,52.13
2022-12-20T22:34:10.560Z,53.45
2022-12-20T22:36:37.214Z,47.58
2022-12-20T22:39:04.063Z,47.60
2022-12-20T22:41:34.655Z,48.80
2022-12-20T22:44:01.894Z,55.00
2022-12-20T22:48:57.015Z,51.08
2022-12-20T22:51:27.094Z,48.53
2022-12-20T22:53:53.847Z,47.90
2022-12-20T22:56:21.725Z,47.35
2022-12-20T22:58:49.534Z,50.63
2022-12-20T23:01:19.679Z,48.63
2022-12-20T23:03:46.752Z,48.38
2022-12-20T23:08:41.005Z,48.92
2022-12-20T23:11:40.945Z,51.90
2022-12-20T23:14:30.490Z,52.72
2022-12-20T23:16:57.296Z,52.90
2022-12-20T23:19:23.728Z,51.03
2022-12-20T23:22:08.709Z,51.13
2022-12-20T23:24:35.236Z,48.03
2022-12-20T23:27:02.313Z,45.70
2022-12-20T23:29:29.965Z,48.77
2022-12-20T23:31:56.746Z,47.03
2022-12-20T23:34:23.396Z,52.55
2022-12-20T23:36:49.881Z,46.63
2022-12-20T23:39:17.285Z,52.40
2022-12-20T23:41:43.703Z,49.15
2022-12-20T23:44:10.179Z,48.67
2022-12-20T23:46:36.648Z,49.60
2022-12-20T23:49:03.110Z,50.83
2022-12-20T23:51:29.725Z,47.22
2022-12-20T23:53:56.207Z,45.70
2022-12-20T23:56:23.393Z,49.55
2022-12-20T23:58:53.232Z,47.38
